Hialeah Lakes, Florida
Current Conditions -  °F | °C
As of 7:53 AM on Thursday 23 Oct 2014 (Local Time) from KOPF Reporting Station
Light Rain Light Rain  
Wind Chill: 75°   Ceiling: 11000
Heat Index: 75°   Visibility: 10mi
Dew Point: 72°   Wind: 8mph
Humidity: 90%   Direction: 360°N
Pressure: 29.91"   Gusts: NA
Location:  25.9357°N, 80.3817°W
Report Text: KOPF 231153Z 36007KT 10SM -RA FEW020 SCT026 BKN110 24/22 A2991 RMK AO2 RAB45 SLP130 P0001 60003 70012 T02390222 10239 20233 53006
Loading
Personal Weather Stations






























Interactive Weather Map
Tropical Storm Tracking
New forecast layout! Learn more

10-Day Weather Forecast

Advertisements
Track Severe Weather on mobile